Wetterdaten: Woche 26.04.10 - 02.05.10 (KW17)
Datum Zeit Temperatur Luftfeuchte Luftdruck Niederschlag Windrichtung Sonnenschein Solar Wind
26.04.2010 00:00 11,0 C 73 % 1020,0 hPa 0,0 l/m N 0,00 h 0 W/m 0,9 km/h (0 Bft)
26.04.2010 01:00 10,1 C 76 % 1020,0 hPa 0,0 l/m N 0,00 h 0 W/m 0,4 km/h (0 Bft)
26.04.2010 02:00 10,2 C 78 % 1019,8 hPa 0,0 l/m SW 0,00 h 0 W/m 1,3 km/h (1 Bft)
26.04.2010 03:00 11,0 C 75 % 1019,9 hPa 0,0 l/m SW 0,00 h 0 W/m 2,0 km/h (1 Bft)
26.04.2010 04:00 11,0 C 77 % 1020,1 hPa 0,0 l/m N 0,00 h 0 W/m 1,9 km/h (1 Bft)
26.04.2010 05:00 10,5 C 78 % 1020,8 hPa 0,0 l/m N-NO 0,00 h 0 W/m 4,8 km/h (1 Bft)
26.04.2010 06:00 11,0 C 73 % 1021,8 hPa 0,0 l/m N-NO 0,00 h 15 W/m 5,8 km/h (1 Bft)
26.04.2010 07:00 11,2 C 75 % 1022,7 hPa 0,0 l/m SW 0,17 h 76 W/m 3,1 km/h (1 Bft)
26.04.2010 08:00 10,8 C 84 % 1023,1 hPa 0,6 l/m SW 0,00 h 28 W/m 2,0 km/h (1 Bft)
26.04.2010 09:00 10,4 C 91 % 1023,5 hPa 1,2 l/m SW 0,00 h 67 W/m 3,7 km/h (1 Bft)
26.04.2010 10:00 11,4 C 91 % 1023,9 hPa 0,2 l/m SW 0,25 h 330 W/m 10,5 km/h (2 Bft)
26.04.2010 11:00 13,7 C 83 % 1023,9 hPa 0,0 l/m S-SW 0,42 h 484 W/m 12,8 km/h (3 Bft)
26.04.2010 12:00 15,7 C 73 % 1023,5 hPa 0,0 l/m S-SW 0,67 h 709 W/m 16,4 km/h (3 Bft)
26.04.2010 13:00 15,5 C 72 % 1022,9 hPa 0,0 l/m S-SW 0,25 h 345 W/m 19,2 km/h (3 Bft)
26.04.2010 14:00 13,0 C 76 % 1023,0 hPa 0,0 l/m W-SW 0,33 h 372 W/m 18,8 km/h (3 Bft)
26.04.2010 15:00 13,6 C 76 % 1023,1 hPa 1,2 l/m N-NO 0,00 h 145 W/m 8,2 km/h (2 Bft)
26.04.2010 16:00 13,2 C 85 % 1022,6 hPa 0,0 l/m SW 0,25 h 300 W/m 8,2 km/h (2 Bft)
26.04.2010 17:00 15,0 C 73 % 1022,3 hPa 0,0 l/m S 1,00 h 404 W/m 9,1 km/h (2 Bft)
26.04.2010 18:00 14,9 C 69 % 1022,3 hPa 0,0 l/m S-SW 0,33 h 136 W/m 8,7 km/h (2 Bft)
26.04.2010 19:00 14,3 C 74 % 1022,3 hPa 0,0 l/m S-SW 0,08 h 30 W/m 4,4 km/h (1 Bft)
26.04.2010 20:00 13,6 C 78 % 1022,7 hPa 0,0 l/m SW 0,00 h 7 W/m 4,5 km/h (1 Bft)
26.04.2010 21:00 12,8 C 83 % 1023,2 hPa 0,0 l/m N 0,00 h 0 W/m 1,7 km/h (1 Bft)
26.04.2010 22:00 12,3 C 85 % 1023,7 hPa 0,0 l/m N-NO 0,00 h 0 W/m 2,3 km/h (1 Bft)
26.04.2010 23:00 12,0 C 85 % 1023,7 hPa 0,0 l/m N-NO 0,00 h 0 W/m 2,8 km/h (1 Bft)
27.04.2010 00:00 10,9 C 85 % 1023,6 hPa 0,0 l/m N 0,00 h 0 W/m 1,7 km/h (1 Bft)
27.04.2010 01:00 10,0 C 87 % 1023,6 hPa 0,0 l/m N 0,00 h 0 W/m 1,1 km/h (0 Bft)
27.04.2010 02:00 10,0 C 87 % 1023,5 hPa 0,0 l/m N-NO 0,00 h 0 W/m 2,3 km/h (1 Bft)
27.04.2010 03:00 9,8 C 87 % 1023,4 hPa 0,0 l/m N 0,00 h 0 W/m 4,4 km/h (1 Bft)
27.04.2010 04:00 9,4 C 87 % 1023,3 hPa 0,0 l/m N 0,00 h 0 W/m 1,7 km/h (1 Bft)
27.04.2010 05:00 8,9 C 88 % 1023,1 hPa 0,0 l/m N 0,00 h 0 W/m 2,1 km/h (1 Bft)
27.04.2010 06:00 8,9 C 86 % 1023,2 hPa 0,0 l/m N 0,00 h 16 W/m 4,5 km/h (1 Bft)
27.04.2010 07:00 9,2 C 83 % 1023,7 hPa 0,0 l/m N 0,00 h 67 W/m 4,7 km/h (1 Bft)
27.04.2010 08:00 10,2 C 80 % 1024,0 hPa 0,0 l/m N-NO 0,00 h 163 W/m 7,8 km/h (2 Bft)
27.04.2010 09:00 11,8 C 73 % 1024,5 hPa 0,0 l/m N-NO 0,58 h 304 W/m 9,4 km/h (2 Bft)
27.04.2010 10:00 13,5 C 66 % 1024,7 hPa 0,0 l/m O-NO 0,75 h 424 W/m 14,0 km/h (3 Bft)
27.04.2010 11:00 15,0 C 61 % 1024,7 hPa 0,0 l/m O-NO 1,00 h 662 W/m 15,0 km/h (3 Bft)
27.04.2010 12:00 16,0 C 54 % 1024,5 hPa 0,0 l/m O-SO 0,83 h 665 W/m 17,7 km/h (3 Bft)
27.04.2010 13:00 17,2 C 50 % 1024,2 hPa 0,0 l/m O-NO 0,92 h 832 W/m 15,2 km/h (3 Bft)
27.04.2010 14:00 18,0 C 44 % 1023,9 hPa 0,0 l/m NO 0,92 h 791 W/m 14,5 km/h (3 Bft)
27.04.2010 15:00 18,1 C 42 % 1023,6 hPa 0,0 l/m NO 0,42 h 414 W/m 13,7 km/h (3 Bft)
27.04.2010 16:00 18,6 C 40 % 1023,2 hPa 0,0 l/m NO 0,83 h 509 W/m 12,3 km/h (3 Bft)
27.04.2010 17:00 18,6 C 39 % 1023,0 hPa 0,0 l/m NO 0,75 h 364 W/m 12,9 km/h (3 Bft)
27.04.2010 18:00 18,4 C 39 % 1023,2 hPa 0,0 l/m NO 1,00 h 232 W/m 13,0 km/h (3 Bft)
27.04.2010 19:00 17,5 C 42 % 1023,3 hPa 0,0 l/m NO 0,08 h 66 W/m 8,8 km/h (2 Bft)
27.04.2010 20:00 15,0 C 54 % 1023,9 hPa 0,0 l/m NO 0,00 h 9 W/m 4,0 km/h (1 Bft)
27.04.2010 21:00 12,9 C 61 % 1024,6 hPa 0,0 l/m O-NO 0,00 h 0 W/m 5,9 km/h (2 Bft)
27.04.2010 22:00 11,1 C 69 % 1025,1 hPa 0,0 l/m N-NO 0,00 h 0 W/m 3,1 km/h (1 Bft)
27.04.2010 23:00 10,1 C 74 % 1025,3 hPa 0,0 l/m N 0,00 h 0 W/m 3,2 km/h (1 Bft)
28.04.2010 00:00 9,3 C 76 % 1025,2 hPa 0,0 l/m N 0,00 h 0 W/m 2,0 km/h (1 Bft)
28.04.2010 01:00 8,3 C 81 % 1025,0 hPa 0,0 l/m N 0,00 h 0 W/m 3,6 km/h (1 Bft)
28.04.2010 02:00 7,9 C 83 % 1024,9 hPa 0,0 l/m N-NW 0,00 h 0 W/m 4,8 km/h (1 Bft)
28.04.2010 03:00 7,4 C 84 % 1024,6 hPa 0,0 l/m N-NW 0,00 h 0 W/m 4,9 km/h (1 Bft)
28.04.2010 04:00 7,1 C 86 % 1024,6 hPa 0,0 l/m N-NW 0,00 h 0 W/m 6,0 km/h (2 Bft)
28.04.2010 05:00 7,1 C 83 % 1024,5 hPa 0,0 l/m N-NW 0,00 h 0 W/m 5,6 km/h (1 Bft)
28.04.2010 06:00 6,9 C 84 % 1024,4 hPa 0,0 l/m N-NW 0,33 h 28 W/m 5,5 km/h (1 Bft)
28.04.2010 07:00 8,3 C 81 % 1024,5 hPa 0,0 l/m N-NW 0,92 h 184 W/m 5,2 km/h (1 Bft)
28.04.2010 08:00 10,8 C 73 % 1024,6 hPa 0,0 l/m N-NO 1,00 h 350 W/m 8,0 km/h (2 Bft)
28.04.2010 09:00 13,0 C 66 % 1024,5 hPa 0,0 l/m N 1,00 h 505 W/m 6,7 km/h (2 Bft)
28.04.2010 10:00 15,6 C 59 % 1024,4 hPa 0,0 l/m O-NO 1,00 h 660 W/m 8,0 km/h (2 Bft)
28.04.2010 11:00 18,0 C 46 % 1024,2 hPa 0,0 l/m O-NO 1,00 h 763 W/m 14,6 km/h (3 Bft)
28.04.2010 12:00 18,9 C 36 % 1023,8 hPa 0,0 l/m O 1,00 h 830 W/m 15,8 km/h (3 Bft)
28.04.2010 13:00 19,8 C 34 % 1023,2 hPa 0,0 l/m O-SO 1,00 h 840 W/m 13,6 km/h (3 Bft)
28.04.2010 14:00 20,7 C 32 % 1022,5 hPa 0,0 l/m O 1,00 h 802 W/m 11,0 km/h (2 Bft)
28.04.2010 15:00 21,1 C 30 % 1022,0 hPa 0,0 l/m SO 1,00 h 718 W/m 10,9 km/h (2 Bft)
28.04.2010 16:00 21,4 C 29 % 1021,2 hPa 0,0 l/m SO 1,00 h 589 W/m 9,4 km/h (2 Bft)
28.04.2010 17:00 21,6 C 30 % 1020,5 hPa 0,0 l/m NO 1,00 h 429 W/m 8,3 km/h (2 Bft)
28.04.2010 18:00 21,2 C 30 % 1020,0 hPa 0,0 l/m N 1,00 h 253 W/m 5,9 km/h (2 Bft)
28.04.2010 19:00 19,7 C 36 % 1019,8 hPa 0,0 l/m N-NO 0,25 h 56 W/m 9,3 km/h (2 Bft)
28.04.2010 20:00 16,6 C 47 % 1019,9 hPa 0,0 l/m N-NO 0,00 h 11 W/m 3,3 km/h (1 Bft)
28.04.2010 21:00 14,0 C 55 % 1020,2 hPa 0,0 l/m N 0,00 h 0 W/m 1,1 km/h (0 Bft)
28.04.2010 22:00 12,3 C 59 % 1020,3 hPa 0,0 l/m N 0,00 h 0 W/m 0,4 km/h (0 Bft)
28.04.2010 23:00 11,2 C 65 % 1020,0 hPa 0,0 l/m N 0,00 h 0 W/m 1,5 km/h (1 Bft)
29.04.2010 00:00 10,7 C 67 % 1019,6 hPa 0,0 l/m N 0,00 h 0 W/m 1,6 km/h (1 Bft)
29.04.2010 01:00 9,7 C 73 % 1019,5 hPa 0,0 l/m N 0,00 h 0 W/m 0,3 km/h (0 Bft)
29.04.2010 02:00 8,4 C 79 % 1019,3 hPa 0,0 l/m N 0,00 h 0 W/m 0,0 km/h (0 Bft)
29.04.2010 03:00 7,4 C 83 % 1018,8 hPa 0,0 l/m N 0,00 h 0 W/m 0,0 km/h (0 Bft)
29.04.2010 04:00 6,7 C 86 % 1018,6 hPa 0,0 l/m N 0,00 h 0 W/m 0,0 km/h (0 Bft)
29.04.2010 05:00 6,3 C 88 % 1018,1 hPa 0,0 l/m N 0,00 h 0 W/m 0,0 km/h (0 Bft)
29.04.2010 06:00 6,2 C 88 % 1017,7 hPa 0,0 l/m N 0,00 h 16 W/m 0,1 km/h (0 Bft)
29.04.2010 07:00 7,6 C 85 % 1017,7 hPa 0,0 l/m N 0,92 h 160 W/m 0,5 km/h (0 Bft)
29.04.2010 08:00 11,8 C 72 % 1017,6 hPa 0,0 l/m N-NO 1,00 h 343 W/m 2,5 km/h (1 Bft)
29.04.2010 09:00 15,9 C 61 % 1017,2 hPa 0,0 l/m S-SW 1,00 h 508 W/m 8,3 km/h (2 Bft)
29.04.2010 10:00 18,6 C 53 % 1016,8 hPa 0,0 l/m S 1,00 h 656 W/m 11,8 km/h (2 Bft)
29.04.2010 11:00 20,9 C 51 % 1016,4 hPa 0,0 l/m S 1,00 h 759 W/m 13,6 km/h (3 Bft)
29.04.2010 12:00 22,9 C 41 % 1015,6 hPa 0,0 l/m SW 1,00 h 828 W/m 18,1 km/h (3 Bft)
29.04.2010 13:00 23,5 C 36 % 1014,8 hPa 0,0 l/m SW 1,00 h 813 W/m 19,8 km/h (4 Bft)
29.04.2010 14:00 24,0 C 34 % 1014,1 hPa 0,0 l/m SW 1,00 h 782 W/m 22,5 km/h (4 Bft)
29.04.2010 15:00 24,3 C 31 % 1013,3 hPa 0,0 l/m SW 1,00 h 680 W/m 21,7 km/h (4 Bft)
29.04.2010 16:00 24,5 C 30 % 1012,3 hPa 0,0 l/m W-SW 1,00 h 588 W/m 18,2 km/h (3 Bft)
29.04.2010 17:00 24,2 C 30 % 1011,7 hPa 0,0 l/m W-SW 1,00 h 375 W/m 17,3 km/h (3 Bft)
29.04.2010 18:00 23,7 C 32 % 1011,2 hPa 0,0 l/m W-SW 1,00 h 241 W/m 17,4 km/h (3 Bft)
29.04.2010 19:00 22,4 C 38 % 1010,8 hPa 0,0 l/m W-SW 0,00 h 56 W/m 11,7 km/h (2 Bft)
29.04.2010 20:00 19,0 C 50 % 1010,6 hPa 0,0 l/m W-SW 0,00 h 9 W/m 3,9 km/h (1 Bft)
29.04.2010 21:00 16,3 C 60 % 1010,8 hPa 0,0 l/m N 0,00 h 0 W/m 0,7 km/h (0 Bft)
29.04.2010 22:00 14,7 C 67 % 1010,8 hPa 0,0 l/m N 0,00 h 0 W/m 0,5 km/h (0 Bft)
29.04.2010 23:00 14,0 C 71 % 1010,5 hPa 0,0 l/m S-SW 0,00 h 0 W/m 2,9 km/h (1 Bft)
30.04.2010 00:00 14,5 C 68 % 1010,5 hPa 0,0 l/m SW 0,00 h 0 W/m 6,3 km/h (2 Bft)
30.04.2010 01:00 15,8 C 61 % 1010,6 hPa 0,0 l/m SW 0,00 h 0 W/m 11,1 km/h (2 Bft)
30.04.2010 02:00 16,4 C 58 % 1010,4 hPa 0,0 l/m W-SW 0,00 h 0 W/m 11,0 km/h (2 Bft)
30.04.2010 03:00 16,0 C 59 % 1010,3 hPa 0,0 l/m SW 0,00 h 0 W/m 12,6 km/h (3 Bft)
30.04.2010 04:00 15,8 C 61 % 1010,6 hPa 0,0 l/m SW 0,00 h 0 W/m 13,7 km/h (3 Bft)
30.04.2010 05:00 16,3 C 59 % 1010,7 hPa 0,0 l/m SW 0,00 h 0 W/m 14,3 km/h (3 Bft)
30.04.2010 06:00 15,5 C 69 % 1011,0 hPa 0,4 l/m SW 0,00 h 6 W/m 21,5 km/h (4 Bft)
30.04.2010 07:00 13,7 C 86 % 1011,3 hPa 0,2 l/m SW 0,00 h 40 W/m 11,4 km/h (2 Bft)
30.04.2010 08:00 14,1 C 89 % 1011,3 hPa 0,0 l/m S-SW 0,08 h 163 W/m 12,5 km/h (3 Bft)
30.04.2010 09:00 15,6 C 78 % 1011,1 hPa 0,0 l/m W-SW 0,00 h 158 W/m 18,9 km/h (3 Bft)
30.04.2010 10:00 15,7 C 77 % 1011,0 hPa 0,0 l/m W 0,00 h 217 W/m 19,3 km/h (3 Bft)
30.04.2010 11:00 17,4 C 71 % 1011,0 hPa 0,0 l/m W-SW 0,25 h 374 W/m 18,8 km/h (3 Bft)
30.04.2010 12:00 18,1 C 67 % 1010,8 hPa 0,0 l/m W 0,50 h 448 W/m 19,8 km/h (4 Bft)
30.04.2010 13:00 19,0 C 64 % 1010,4 hPa 0,0 l/m W-SW 0,67 h 535 W/m 21,2 km/h (4 Bft)
30.04.2010 14:00 20,3 C 59 % 1009,7 hPa 0,0 l/m W-NW 0,83 h 609 W/m 19,8 km/h (4 Bft)
30.04.2010 15:00 21,0 C 56 % 1009,2 hPa 0,0 l/m W-NW 0,67 h 432 W/m 13,4 km/h (3 Bft)
30.04.2010 16:00 20,5 C 54 % 1008,6 hPa 0,0 l/m N 0,00 h 242 W/m 14,4 km/h (3 Bft)
30.04.2010 17:00 19,6 C 51 % 1008,5 hPa 0,0 l/m W-NW 0,00 h 129 W/m 11,3 km/h (2 Bft)
30.04.2010 18:00 17,9 C 67 % 1008,7 hPa 0,0 l/m NW 0,00 h 55 W/m 6,2 km/h (2 Bft)
30.04.2010 19:00 17,1 C 65 % 1009,0 hPa 0,0 l/m N-NW 0,00 h 8 W/m 14,5 km/h (3 Bft)
30.04.2010 20:00 14,2 C 82 % 1010,1 hPa 1,0 l/m W-NW 0,00 h 0 W/m 19,6 km/h (3 Bft)
30.04.2010 21:00 12,4 C 89 % 1011,0 hPa 2,2 l/m W 0,00 h 0 W/m 17,2 km/h (3 Bft)
30.04.2010 22:00 12,1 C 91 % 1011,3 hPa 1,0 l/m W-SW 0,00 h 0 W/m 11,0 km/h (2 Bft)
30.04.2010 23:00 11,9 C 94 % 1011,5 hPa 2,8 l/m SW 0,00 h 0 W/m 11,6 km/h (2 Bft)
01.05.2010 00:00 11,9 C 96 % 1011,4 hPa 1,8 l/m SW 0,00 h 0 W/m 8,8 km/h (2 Bft)
01.05.2010 01:00 12,0 C 97 % 1010,9 hPa 0,4 l/m SW 0,00 h 0 W/m 10,6 km/h (2 Bft)
01.05.2010 02:00 11,7 C 97 % 1010,5 hPa 0,0 l/m SW 0,00 h 0 W/m 9,9 km/h (2 Bft)
01.05.2010 03:00 11,0 C 97 % 1010,4 hPa 0,0 l/m SW 0,00 h 0 W/m 6,0 km/h (2 Bft)
01.05.2010 04:00 11,2 C 98 % 1010,1 hPa 0,0 l/m SW 0,00 h 0 W/m 6,1 km/h (2 Bft)
01.05.2010 05:00 11,3 C 98 % 1009,7 hPa 0,0 l/m SW 0,00 h 0 W/m 7,2 km/h (2 Bft)
01.05.2010 06:00 11,5 C 98 % 1009,3 hPa 0,2 l/m N 0,00 h 13 W/m 2,1 km/h (1 Bft)
01.05.2010 07:00 11,6 C 98 % 1009,6 hPa 0,2 l/m O-SO 0,00 h 32 W/m 2,1 km/h (1 Bft)
01.05.2010 08:00 12,3 C 98 % 1009,5 hPa 0,0 l/m O-SO 0,33 h 187 W/m 5,1 km/h (1 Bft)
01.05.2010 09:00 12,8 C 95 % 1009,5 hPa 0,0 l/m S-SW 0,00 h 85 W/m 5,7 km/h (1 Bft)
01.05.2010 10:00 12,7 C 95 % 1009,7 hPa 0,0 l/m S-SW 0,00 h 55 W/m 3,6 km/h (1 Bft)
01.05.2010 11:00 12,5 C 94 % 1010,3 hPa 1,0 l/m W 0,00 h 99 W/m 11,0 km/h (2 Bft)
01.05.2010 12:00 12,1 C 93 % 1010,2 hPa 0,2 l/m W-NW 0,00 h 136 W/m 9,8 km/h (2 Bft)
01.05.2010 13:00 12,0 C 92 % 1010,2 hPa 0,2 l/m W-SW 0,00 h 126 W/m 8,0 km/h (2 Bft)
01.05.2010 14:00 11,9 C 92 % 1010,2 hPa 0,4 l/m W-SW 0,00 h 133 W/m 8,3 km/h (2 Bft)
01.05.2010 15:00 11,9 C 94 % 1010,0 hPa 0,4 l/m S-SW 0,00 h 124 W/m 11,0 km/h (2 Bft)
01.05.2010 16:00 11,9 C 94 % 1009,8 hPa 0,6 l/m W-SW 0,00 h 118 W/m 11,3 km/h (2 Bft)
01.05.2010 17:00 11,7 C 95 % 1009,6 hPa 0,8 l/m SW 0,00 h 76 W/m 12,1 km/h (2 Bft)
01.05.2010 18:00 11,3 C 96 % 1009,8 hPa 1,2 l/m SW 0,00 h 36 W/m 12,8 km/h (3 Bft)
01.05.2010 19:00 11,2 C 96 % 1009,8 hPa 0,6 l/m SW 0,00 h 22 W/m 13,6 km/h (3 Bft)
01.05.2010 20:00 10,9 C 97 % 1010,0 hPa 1,0 l/m S-SW 0,00 h 6 W/m 11,4 km/h (2 Bft)
01.05.2010 21:00 10,7 C 97 % 1010,5 hPa 1,2 l/m SW 0,00 h 0 W/m 13,7 km/h (3 Bft)
01.05.2010 22:00 10,7 C 98 % 1010,6 hPa 1,0 l/m SW 0,00 h 0 W/m 13,8 km/h (3 Bft)
01.05.2010 23:00 10,4 C 98 % 1010,3 hPa 0,8 l/m SW 0,00 h 0 W/m 13,7 km/h (3 Bft)
02.05.2010 00:00 10,3 C 98 % 1010,0 hPa 0,4 l/m SW 0,00 h 0 W/m 10,9 km/h (2 Bft)
02.05.2010 01:00 10,1 C 97 % 1010,1 hPa 0,8 l/m N-NW 0,00 h 0 W/m 7,0 km/h (2 Bft)
02.05.2010 02:00 9,8 C 97 % 1010,2 hPa 0,8 l/m N 0,00 h 0 W/m 2,5 km/h (1 Bft)
02.05.2010 03:00 9,7 C 98 % 1010,0 hPa 0,2 l/m N 0,00 h 0 W/m 0,7 km/h (0 Bft)
02.05.2010 04:00 9,5 C 98 % 1009,9 hPa 0,4 l/m O 0,00 h 0 W/m 2,7 km/h (1 Bft)
02.05.2010 05:00 9,4 C 98 % 1009,6 hPa 0,0 l/m N 0,00 h 0 W/m 0,1 km/h (0 Bft)
02.05.2010 06:00 9,4 C 98 % 1008,9 hPa 0,2 l/m N 0,00 h 15 W/m 0,8 km/h (0 Bft)
02.05.2010 07:00 9,6 C 98 % 1008,8 hPa 0,0 l/m O 0,00 h 47 W/m 3,2 km/h (1 Bft)
02.05.2010 08:00 9,9 C 97 % 1008,6 hPa 0,2 l/m SO 0,00 h 75 W/m 3,5 km/h (1 Bft)
02.05.2010 09:00 10,2 C 95 % 1008,4 hPa 0,6 l/m O-NO 0,00 h 101 W/m 4,4 km/h (1 Bft)
02.05.2010 10:00 10,4 C 96 % 1008,7 hPa 1,0 l/m NO 0,00 h 122 W/m 4,9 km/h (1 Bft)
02.05.2010 11:00 10,6 C 95 % 1009,0 hPa 1,6 l/m NO 0,00 h 182 W/m 5,7 km/h (1 Bft)
02.05.2010 12:00 10,8 C 96 % 1008,8 hPa 1,8 l/m NO 0,00 h 122 W/m 7,4 km/h (2 Bft)
02.05.2010 13:00 10,4 C 93 % 1008,7 hPa 1,2 l/m N-NW 0,00 h 155 W/m 6,4 km/h (2 Bft)
02.05.2010 14:00 10,7 C 93 % 1008,6 hPa 1,0 l/m N-NW 0,00 h 184 W/m 2,4 km/h (1 Bft)
02.05.2010 15:00 10,9 C 92 % 1008,5 hPa 0,2 l/m N-NW 0,00 h 129 W/m 3,7 km/h (1 Bft)
02.05.2010 16:00 10,7 C 93 % 1008,4 hPa 0,2 l/m W-NW 0,00 h 151 W/m 6,3 km/h (2 Bft)
02.05.2010 17:00 10,4 C 93 % 1008,3 hPa 0,4 l/m SW 0,00 h 98 W/m 9,7 km/h (2 Bft)
02.05.2010 18:00 9,9 C 95 % 1008,3 hPa 1,2 l/m SW 0,00 h 32 W/m 8,7 km/h (2 Bft)
02.05.2010 19:00 9,3 C 95 % 1008,4 hPa 0,8 l/m SW 0,00 h 10 W/m 10,5 km/h (2 Bft)
02.05.2010 20:00 8,9 C 96 % 1008,8 hPa 0,2 l/m SW 0,00 h 5 W/m 8,7 km/h (2 Bft)
02.05.2010 21:00 8,4 C 96 % 1009,2 hPa 0,2 l/m SW 0,00 h 0 W/m 13,3 km/h (3 Bft)
02.05.2010 22:00 8,1 C 97 % 1009,2 hPa 0,8 l/m SW 0,00 h 0 W/m 10,5 km/h (2 Bft)
02.05.2010 23:00 8,1 C 97 % 1009,2 hPa 0,6 l/m SW 0,00 h 0 W/m 10,6 km/h (2 Bft)
Min-Datum _ 29.04.10 28.04.10 02.05.10 - - - - 26.04.10
_ Min-Zeit 06:35 16:05 17:50 - - - - 00:05
Minimum _ 6,1 C 26 % 1008,2 hPa - - - - 0,0 km/h (0 Bft)
Max-Datum _ 29.04.10 01.05.10 27.04.10 30.04.10 - 26.04.10 26.04.10 26.04.10
_ Max-Zeit 16:25 04:15 22:55 23:00 - 07:25 13:10 14:15
Maximum _ 24,7 C 98 % 1025,4 hPa 2,8 l/m - 0,08 h 1086 W/m 29,0 km/h
SW (5 Bft)
Durchschnitt _ 13,4 C 75 % 1016,2 hPa #37,6 l/m SW #39:35 h 278 W/m 8,4 km/h (2 Bft)